Time;durP1;ratioP1;P1;durP2;ratioP2;P2;SDS_P1;SDS_P2;PMS_P1;PMS_P2;Temp;Humidity;BMP_temperature;BMP_pressure;BME280_temperature;BME280_humidity;BME280_pressure;Samples;Min_cycle;Max_cycle;Signal;HPM_P1;HPM_P2
2022/03/23 00:00:58;;;;;;;;;;;;;;;4.96;47.50;100950.88;3125868;28;19960;-72
2022/03/23 00:02:30;;;;;;;;;;;;;;;4.94;47.59;100947.47;3124389;28;19968;-75
2022/03/23 00:04:02;;;;;;;;;;;;;;;4.92;47.74;100946.59;3123962;28;19932;-78
2022/03/23 00:05:34;;;;;;;;;;;;;;;4.74;47.75;100920.84;3119324;28;19992;-78
2022/03/23 00:07:08;;;;;;;;;;;;;;;4.88;47.95;100951.75;3122556;28;19924;-77
2022/03/23 00:08:39;;;;;;;;;;;;;;;4.85;47.92;100947.50;3113540;28;20354;-77
2022/03/23 00:10:12;;;;;;;;;;;;;;;4.83;48.00;100945.78;3118216;28;20039;-77
2022/03/23 00:11:43;;;;;;;;;;;;;;;4.81;47.94;100948.34;3118669;28;19979;-77
2022/03/23 00:13:14;;;;;;;;;;;;;;;4.78;48.11;100944.06;3118977;28;19924;-77
2022/03/23 00:14:46;;;;;;;;;;;;;;;4.76;48.08;100940.63;3123859;28;19960;-77
2022/03/23 00:16:18;;;;;;;;;;;;;;;4.70;48.34;100935.50;3119563;28;19925;-77
2022/03/23 00:17:48;;;;;;;;;;;;;;;4.71;48.24;100947.53;3117566;28;19924;-77
2022/03/23 00:19:20;;;;;;;;;;;;;;;4.70;48.37;100937.19;3124429;28;19971;-77
2022/03/23 00:20:51;;;;;;;;;;;;;;;4.67;48.35;100942.38;3116403;28;20031;-77
2022/03/23 00:22:27;;;;;;;;;;;;;;;4.66;48.33;100945.81;3123652;28;19931;-77
2022/03/23 00:23:59;;;;;;;;;;;;;;;4.64;48.48;100944.97;3128421;28;20027;-75
2022/03/23 00:25:31;;;;;;;;;;;;;;;4.62;48.50;100947.56;3121907;28;19924;-75
2022/03/23 00:27:02;;;;;;;;;;;;;;;4.61;48.42;100948.41;3121810;28;19971;-75
2022/03/23 00:28:34;;;;;;;;;;;;;;;4.58;48.63;100940.66;3119440;28;20092;-75
2022/03/23 00:30:07;;;;;;;;;;;;;;;4.57;48.75;100942.38;3126492;28;19947;-76
2022/03/23 00:31:39;;;;;;;;;;;;;;;4.56;48.56;100951.00;3119763;28;20099;-73
2022/03/23 00:33:11;;;;;;;;;;;;;;;4.56;48.84;100952.72;3117919;28;19929;-75
2022/03/23 00:34:43;;;;;;;;;;;;;;;4.56;48.75;100963.91;3120197;28;19952;-74
2022/03/23 00:36:15;;;;;;;;;;;;;;;4.53;49.31;100961.34;3114695;28;19925;-74
2022/03/23 00:37:48;;;;;;;;;;;;;;;4.49;49.23;100956.16;3119520;28;19975;-74
2022/03/23 00:39:22;;;;;;;;;;;;;;;4.49;49.08;100946.69;3112464;28;20337;-75
2022/03/23 00:40:53;;;;;;;;;;;;;;;4.49;49.01;100938.09;3120421;28;19955;-74
2022/03/23 00:42:25;;;;;;;;;;;;;;;4.49;49.15;100936.38;3118025;28;20426;-74
2022/03/23 00:43:57;;;;;;;;;;;;;;;4.47;49.19;100943.28;3122858;28;19946;-75
2022/03/23 00:45:29;;;;;;;;;;;;;;;4.47;48.90;100947.59;3122893;28;19928;-75
2022/03/23 00:47:01;;;;;;;;;;;;;;;4.47;49.15;100932.13;3125523;28;20027;-75
2022/03/23 00:48:33;;;;;;;;;;;;;;;4.36;48.91;100916.66;3121958;28;19924;-76
2022/03/23 00:50:05;;;;;;;;;;;;;;;4.45;49.20;100939.00;3112276;28;20425;-76
2022/03/23 00:51:37;;;;;;;;;;;;;;;4.43;49.09;100940.69;3123737;28;20027;-76
2022/03/23 00:53:10;;;;;;;;;;;;;;;4.41;49.04;100942.41;3122776;28;20132;-76
2022/03/23 00:54:42;;;;;;;;;;;;;;;4.40;48.99;100938.13;3117129;28;19925;-78
2022/03/23 00:56:14;;;;;;;;;;;;;;;4.38;48.96;100938.16;3113301;28;19925;-78
2022/03/23 00:57:46;;;;;;;;;;;;;;;4.36;48.93;100934.69;3116577;28;20332;-78
2022/03/23 00:59:18;;;;;;;;;;;;;;;4.35;48.93;100938.16;3119426;28;19986;-78
2022/03/23 01:00:50;;;;;;;;;;;;;;;4.33;48.97;100940.72;3119084;28;19946;-78
2022/03/23 01:02:21;;;;;;;;;;;;;;;4.31;48.96;100932.13;3124572;28;20328;-76
2022/03/23 01:03:54;;;;;;;;;;;;;;;4.31;48.93;100937.28;3122416;28;19990;-76
2022/03/23 01:05:26;;;;;;;;;;;;;;;4.30;49.04;100937.28;3118121;28;19925;-76
2022/03/23 01:06:58;;;;;;;;;;;;;;;4.29;48.90;100927.84;3124834;28;20272;-78
2022/03/23 01:08:31;;;;;;;;;;;;;;;4.27;48.87;100930.41;3116581;28;20290;-77
2022/03/23 01:10:03;;;;;;;;;;;;;;;4.26;49.02;100930.41;3122851;28;20428;-77
2022/03/23 01:11:37;;;;;;;;;;;;;;;4.24;49.06;100930.41;3115292;28;20378;-77
2022/03/23 01:13:09;;;;;;;;;;;;;;;4.22;48.93;100926.13;3111457;28;19925;-77
2022/03/23 01:14:41;;;;;;;;;;;;;;;4.21;48.98;100930.44;3122170;28;20258;-76
2022/03/23 01:16:12;;;;;;;;;;;;;;;4.19;48.98;100928.69;3120623;28;20440;-74
2022/03/23 01:17:44;;;;;;;;;;;;;;;4.17;48.99;100931.31;3126562;28;19994;-76
2022/03/23 01:19:17;;;;;;;;;;;;;;;4.16;49.04;100928.72;3113252;28;19971;-76
2022/03/23 01:20:49;;;;;;;;;;;;;;;4.13;49.20;100932.16;3116493;28;20507;-76
2022/03/23 01:22:21;;;;;;;;;;;;;;;4.12;49.10;100927.84;3118578;28;20339;-76
2022/03/23 01:23:54;;;;;;;;;;;;;;;4.10;49.17;100924.41;3113232;28;20358;-76
2022/03/23 01:25:25;;;;;;;;;;;;;;;4.08;49.17;100923.53;3119139;28;20380;-75
2022/03/23 01:26:56;;;;;;;;;;;;;;;4.06;49.21;100928.72;3116425;28;20389;-75
2022/03/23 01:28:28;;;;;;;;;;;;;;;4.04;49.32;100924.41;3115083;28;20077;-74
2022/03/23 01:29:59;;;;;;;;;;;;;;;4.02;49.39;100921.84;3122151;28;19994;-75
2022/03/23 01:31:31;;;;;;;;;;;;;;;3.90;49.37;100911.53;3120124;28;19929;-75
2022/03/23 01:33:03;;;;;;;;;;;;;;;3.82;49.34;100890.06;3120699;28;19995;-74
2022/03/23 01:34:34;;;;;;;;;;;;;;;3.97;49.57;100920.13;3121008;28;20251;-74
2022/03/23 01:36:06;;;;;;;;;;;;;;;3.95;49.67;100916.69;3116434;28;19978;-75
2022/03/23 01:37:37;;;;;;;;;;;;;;;3.93;49.70;100919.25;3114796;28;20273;-75
2022/03/23 01:39:10;;;;;;;;;;;;;;;3.92;49.69;100921.84;3117761;28;20426;-75
2022/03/23 01:40:41;;;;;;;;;;;;;;;3.91;49.80;100927.88;3117372;28;19940;-75
2022/03/23 01:42:13;;;;;;;;;;;;;;;3.83;50.29;100918.41;3117623;28;19948;-75
2022/03/23 01:43:45;;;;;;;;;;;;;;;3.84;50.13;100927.00;3113960;28;19967;-75
2022/03/23 01:45:17;;;;;;;;;;;;;;;3.83;50.08;100926.13;3123998;28;19924;-75
2022/03/23 01:46:59;;;;;;;;;;;;;;;3.81;49.89;100925.25;3122855;28;19932;-75
2022/03/23 01:48:31;;;;;;;;;;;;;;;3.79;50.15;100929.56;3122528;28;19951;-76
2022/03/23 01:50:04;;;;;;;;;;;;;;;3.77;50.21;100926.13;3120112;28;19925;-75
2022/03/23 01:51:35;;;;;;;;;;;;;;;3.76;50.25;100929.56;3118191;28;19925;-75
2022/03/23 01:53:07;;;;;;;;;;;;;;;3.73;50.44;100931.31;3123397;28;20015;-75
2022/03/23 01:54:40;;;;;;;;;;;;;;;3.72;50.39;100929.56;3123761;28;20399;-75
2022/03/23 01:56:13;;;;;;;;;;;;;;;3.70;50.56;100932.16;3115541;28;20727;-75
2022/03/23 01:57:44;;;;;;;;;;;;;;;3.67;50.52;100934.72;3118401;28;19924;-75
2022/03/23 01:59:16;;;;;;;;;;;;;;;3.65;50.63;100934.72;3124330;28;20560;-75
2022/03/23 02:00:48;;;;;;;;;;;;;;;3.63;50.71;100936.41;3133202;28;19931;-75
2022/03/23 02:02:20;;;;;;;;;;;;;;;3.62;50.72;100933.84;3134303;28;19986;-77
2022/03/23 02:03:52;;;;;;;;;;;;;;;3.61;50.84;100930.41;3131960;28;19924;-77
2022/03/23 02:05:24;;;;;;;;;;;;;;;3.60;50.87;100931.25;3133383;28;20404;-77
2022/03/23 02:06:56;;;;;;;;;;;;;;;3.58;50.92;100938.16;3131528;28;20321;-76
2022/03/23 02:08:27;;;;;;;;;;;;;;;3.56;50.95;100936.41;3136905;28;19924;-76
2022/03/23 02:10:00;;;;;;;;;;;;;;;3.55;51.11;100932.09;3126726;28;19976;-77
2022/03/23 02:11:33;;;;;;;;;;;;;;;3.53;51.10;100936.41;3124677;28;19999;-77
2022/03/23 02:13:05;;;;;;;;;;;;;;;3.51;51.15;100936.41;3131059;28;19925;-77
2022/03/23 02:14:37;;;;;;;;;;;;;;;3.51;51.15;100940.69;3122321;28;19925;-75
2022/03/23 02:16:09;;;;;;;;;;;;;;;3.30;51.08;100902.88;3128419;28;20310;-71
2022/03/23 02:17:40;;;;;;;;;;;;;;;3.49;51.29;100942.41;3124554;28;20004;-75
2022/03/23 02:19:11;;;;;;;;;;;;;;;3.46;51.25;100934.66;3124573;28;20396;-74
2022/03/23 02:20:43;;;;;;;;;;;;;;;3.46;51.30;100939.81;3131988;28;19960;-74
2022/03/23 02:22:16;;;;;;;;;;;;;;;3.42;51.45;100932.09;3133196;28;19925;-74
2022/03/23 02:23:48;;;;;;;;;;;;;;;3.41;51.36;100939.81;3121084;28;20031;-75
2022/03/23 02:25:21;;;;;;;;;;;;;;;3.40;51.53;100935.50;3121831;28;20342;-74
2022/03/23 02:26:53;;;;;;;;;;;;;;;3.37;51.51;100927.78;3126272;28;20334;-74
2022/03/23 02:28:25;;;;;;;;;;;;;;;3.35;51.62;100934.66;3127300;28;19974;-73
2022/03/23 02:29:57;;;;;;;;;;;;;;;3.34;51.74;100933.81;3129911;28;20001;-73
2022/03/23 02:31:28;;;;;;;;;;;;;;;3.33;51.66;100932.06;3119816;28;19951;-73
2022/03/23 02:33:00;;;;;;;;;;;;;;;3.32;51.75;100938.09;3130525;28;20020;-74
2022/03/23 02:34:32;;;;;;;;;;;;;;;3.31;51.83;100940.63;3126316;28;19925;-74
2022/03/23 02:36:05;;;;;;;;;;;;;;;3.28;51.81;100932.91;3128531;28;20317;-74
2022/03/23 02:37:38;;;;;;;;;;;;;;;3.26;51.81;100935.50;3132171;28;20015;-74
2022/03/23 02:39:08;;;;;;;;;;;;;;;3.25;51.93;100943.19;3128562;28;19921;-73
2022/03/23 02:40:41;;;;;;;;;;;;;;;3.23;52.10;100935.47;3128742;28;19921;-77
2022/03/23 02:42:12;;;;;;;;;;;;;;;3.21;51.93;100934.59;3127774;28;19935;-77
2022/03/23 02:43:44;;;;;;;;;;;;;;;3.21;52.02;100942.34;3120073;28;19933;-76
2022/03/23 02:45:16;;;;;;;;;;;;;;;3.18;52.17;100940.59;3123013;28;19928;-77
2022/03/23 02:46:47;;;;;;;;;;;;;;;3.17;52.22;100936.31;3127925;28;19924;-76
2022/03/23 02:48:19;;;;;;;;;;;;;;;3.16;52.17;100933.72;3120748;28;20354;-76
2022/03/23 02:49:51;;;;;;;;;;;;;;;3.16;52.21;100937.16;3123510;28;19935;-76
2022/03/23 02:51:21;;;;;;;;;;;;;;;3.16;52.23;100936.31;3122656;28;20007;-76
2022/03/23 03:02:36;;;;;;;;;;;;;;;3.06;52.60;100930.28;3099416;28;20005;-76
2022/03/23 03:04:08;;;;;;;;;;;;;;;3.08;52.72;100938.00;3113332;28;19920;-76
2022/03/23 03:05:39;;;;;;;;;;;;;;;3.05;52.76;100932.84;3130438;28;19921;-75
2022/03/23 03:07:10;;;;;;;;;;;;;;;3.05;52.58;100930.28;3121463;28;20036;-78
2022/03/23 03:08:47;;;;;;;;;;;;;;;3.03;52.74;100934.56;3128159;28;20457;-78
2022/03/23 03:10:19;;;;;;;;;;;;;;;3.01;52.73;100931.97;3128582;28;20015;-77
2022/03/23 03:11:51;;;;;;;;;;;;;;;3.00;52.76;100937.97;3121586;28;20252;-76
2022/03/23 03:13:23;;;;;;;;;;;;;;;2.98;52.91;100926.81;3123955;28;19932;-76
2022/03/23 03:14:54;;;;;;;;;;;;;;;2.99;52.89;100935.38;3133028;28;19920;-76
2022/03/23 03:16:26;;;;;;;;;;;;;;;2.97;52.90;100932.81;3134669;28;19924;-76
2022/03/23 03:17:57;;;;;;;;;;;;;;;2.96;52.96;100931.09;3129623;28;19920;-76
2022/03/23 03:19:29;;;;;;;;;;;;;;;2.95;53.00;100930.22;3135698;28;20019;-76
2022/03/23 03:21:01;;;;;;;;;;;;;;;2.94;53.08;100933.66;3127743;28;20379;-76
2022/03/23 03:22:34;;;;;;;;;;;;;;;2.94;53.11;100931.09;3128337;28;19943;-76
2022/03/23 03:24:07;;;;;;;;;;;;;;;2.93;52.94;100929.38;3130617;28;19924;-76
2022/03/23 03:25:39;;;;;;;;;;;;;;;2.93;53.31;100926.81;3124979;28;19921;-76
2022/03/23 03:27:10;;;;;;;;;;;;;;;2.92;53.28;100930.22;3135580;28;20145;-77
2022/03/23 03:28:41;;;;;;;;;;;;;;;2.91;53.17;100927.66;3126997;28;19947;-77
2022/03/23 03:30:14;;;;;;;;;;;;;;;2.74;53.31;100900.13;3131159;28;19928;-78
2022/03/23 03:31:46;;;;;;;;;;;;;;;2.88;53.38;100918.19;3133390;28;20263;-74
2022/03/23 03:33:17;;;;;;;;;;;;;;;2.89;53.28;100919.06;3131192;28;19929;-76
2022/03/23 03:34:49;;;;;;;;;;;;;;;2.87;53.30;100918.19;3129989;28;19920;-76
2022/03/23 03:36:21;;;;;;;;;;;;;;;2.86;53.31;100914.75;3128975;28;20404;-77
2022/03/23 03:37:52;;;;;;;;;;;;;;;2.86;53.40;100919.03;3131990;28;19985;-76
2022/03/23 03:39:25;;;;;;;;;;;;;;;2.86;53.45;100919.03;3122947;28;19921;-76
2022/03/23 03:40:57;;;;;;;;;;;;;;;2.85;53.48;100918.19;3125166;28;19951;-76
2022/03/23 03:42:29;;;;;;;;;;;;;;;2.85;53.38;100918.19;3121020;28;19927;-76
2022/03/23 03:44:01;;;;;;;;;;;;;;;2.84;53.51;100921.63;3132885;28;19998;-73
2022/03/23 03:45:32;;;;;;;;;;;;;;;2.84;53.46;100919.06;3121648;28;19921;-77
2022/03/23 03:47:05;;;;;;;;;;;;;;;2.83;53.45;100917.31;3132630;28;19921;-78
2022/03/23 03:48:37;;;;;;;;;;;;;;;2.83;53.64;100917.31;3130127;28;20015;-73
2022/03/23 03:50:09;;;;;;;;;;;;;;;2.82;53.67;100913.03;3133434;28;19920;-74
2022/03/23 03:51:41;;;;;;;;;;;;;;;2.80;53.64;100909.56;3132526;28;19920;-74
2022/03/23 03:53:11;;;;;;;;;;;;;;;2.80;53.62;100909.56;3126585;28;20623;-73
2022/03/23 03:54:44;;;;;;;;;;;;;;;2.79;53.79;100913.00;3132487;28;19920;-74
2022/03/23 03:56:16;;;;;;;;;;;;;;;2.78;53.79;100907.84;3127818;28;20653;-74
2022/03/23 03:57:47;;;;;;;;;;;;;;;2.77;53.72;100904.41;3127878;28;19920;-74
2022/03/23 03:59:18;;;;;;;;;;;;;;;2.75;53.84;100903.53;3133113;28;19924;-75
2022/03/23 04:00:49;;;;;;;;;;;;;;;2.75;53.78;100911.25;3129686;28;19920;-75
2022/03/23 04:02:21;;;;;;;;;;;;;;;2.74;53.85;100912.13;3125411;28;20470;-76
2022/03/23 04:03:52;;;;;;;;;;;;;;;2.73;53.91;100915.56;3081931;28;1192574;-76
2022/03/23 04:05:24;;;;;;;;;;;;;;;2.72;53.80;100911.25;3130652;28;19921;-77
2022/03/23 04:06:55;;;;;;;;;;;;;;;2.70;53.78;100920.69;3130609;28;19924;-75
2022/03/23 04:08:27;;;;;;;;;;;;;;;2.70;53.91;100918.13;3130592;28;19959;-76
2022/03/23 04:10:00;;;;;;;;;;;;;;;2.69;53.89;100913.81;3135174;28;19924;-79
2022/03/23 04:11:32;;;;;;;;;;;;;;;2.67;54.04;100907.81;3132401;28;19924;-79
2022/03/23 04:13:03;;;;;;;;;;;;;;;2.68;53.94;100914.66;3133028;28;19925;-79
2022/03/23 04:14:35;;;;;;;;;;;;;;;2.53;54.32;100892.31;3133157;28;19940;-76
2022/03/23 04:16:07;;;;;;;;;;;;;;;2.64;54.44;100916.38;3123377;28;19925;-74
2022/03/23 04:17:37;;;;;;;;;;;;;;;2.66;54.23;100921.50;3129370;28;20424;-74
2022/03/23 04:19:09;;;;;;;;;;;;;;;2.66;54.09;100917.25;3125486;28;20004;-74
2022/03/23 04:20:40;;;;;;;;;;;;;;;2.68;53.97;100923.25;3125825;28;19975;-74
2022/03/23 04:22:12;;;;;;;;;;;;;;;2.70;53.99;100925.84;3129926;28;19976;-75
2022/03/23 04:23:44;;;;;;;;;;;;;;;2.70;53.89;100921.53;3133727;28;20493;-75
2022/03/23 04:25:18;;;;;;;;;;;;;;;2.73;53.82;100928.41;3127033;28;19975;-75
2022/03/23 04:26:49;;;;;;;;;;;;;;;2.73;53.77;100920.72;3123988;28;19921;-75
2022/03/23 04:28:21;;;;;;;;;;;;;;;2.74;53.77;100930.13;3127702;28;20294;-75
2022/03/23 04:29:53;;;;;;;;;;;;;;;2.76;53.69;100933.56;3123000;28;20330;-75
2022/03/23 04:31:24;;;;;;;;;;;;;;;2.78;53.55;100931.00;3135343;28;19925;-75
2022/03/23 04:32:56;;;;;;;;;;;;;;;2.81;53.70;100931.00;3129773;28;19921;-75
2022/03/23 04:34:27;;;;;;;;;;;;;;;2.82;53.64;100925.88;3132071;28;19920;-75
2022/03/23 04:35:59;;;;;;;;;;;;;;;2.85;53.63;100937.91;3131046;28;19921;-76
2022/03/23 04:37:31;;;;;;;;;;;;;;;2.87;53.58;100925.88;3137549;28;19985;-75
2022/03/23 04:39:02;;;;;;;;;;;;;;;2.89;53.50;100929.34;3128861;28;19920;-76
2022/03/23 04:40:35;;;;;;;;;;;;;;;2.92;53.59;100926.78;3127065;28;20354;-76
2022/03/23 04:42:07;;;;;;;;;;;;;;;2.78;53.45;100900.13;3127613;28;19924;-75
2022/03/23 04:43:39;;;;;;;;;;;;;;;2.95;53.45;100935.38;3123846;28;19999;-76
2022/03/23 04:45:12;;;;;;;;;;;;;;;3.00;53.39;100935.41;3130786;28;19921;-76
2022/03/23 04:46:43;;;;;;;;;;;;;;;3.03;53.27;100934.56;3130870;28;19920;-76
2022/03/23 04:48:15;;;;;;;;;;;;;;;3.05;53.32;100933.72;3127999;28;19925;-76
2022/03/23 04:49:46;;;;;;;;;;;;;;;3.08;53.25;100926.00;3126433;28;19924;-75
2022/03/23 04:51:18;;;;;;;;;;;;;;;3.12;53.32;100926.88;3132870;28;19920;-75
2022/03/23 04:52:52;;;;;;;;;;;;;;;3.14;53.17;100928.59;3127759;28;19932;-74
2022/03/23 04:54:23;;;;;;;;;;;;;;;3.18;53.25;100932.88;3122807;28;19968;-75
2022/03/23 04:55:56;;;;;;;;;;;;;;;3.21;53.02;100929.47;3129043;28;19963;-77
2022/03/23 04:57:27;;;;;;;;;;;;;;;3.26;53.06;100926.91;3134549;28;19924;-77
2022/03/23 04:58:59;;;;;;;;;;;;;;;3.28;52.98;100931.19;3132040;28;20451;-76
2022/03/23 05:00:31;;;;;;;;;;;;;;;3.32;52.82;100935.50;3132722;28;19927;-77
2022/03/23 05:02:02;;;;;;;;;;;;;;;3.35;52.79;100930.38;3132619;28;20039;-77
2022/03/23 05:03:34;;;;;;;;;;;;;;;3.40;52.68;100930.34;3132851;28;19987;-77
2022/03/23 05:05:06;;;;;;;;;;;;;;;3.45;52.66;100927.81;3132445;28;20442;-77
2022/03/23 05:06:38;;;;;;;;;;;;;;;3.48;52.52;100930.38;3121927;28;20450;-74
2022/03/23 05:08:09;;;;;;;;;;;;;;;3.52;52.50;100932.97;3127338;28;20360;-76
2022/03/23 05:09:41;;;;;;;;;;;;;;;3.56;52.34;100939.00;3129644;28;19928;-76
2022/03/23 05:11:14;;;;;;;;;;;;;;;3.60;52.26;100941.56;3131066;28;19921;-75
2022/03/23 05:12:46;;;;;;;;;;;;;;;3.64;52.24;100939.88;3126799;28;20313;-75
2022/03/23 05:14:18;;;;;;;;;;;;;;;3.68;52.16;100941.59;3123678;28;19975;-75
2022/03/23 05:15:50;;;;;;;;;;;;;;;3.72;51.98;100943.28;3132822;28;20507;-75
2022/03/23 05:17:21;;;;;;;;;;;;;;;3.77;51.97;100943.31;3122918;28;20361;-74
2022/03/23 05:18:53;;;;;;;;;;;;;;;3.83;51.78;100940.75;3129301;28;19926;-74
2022/03/23 05:20:24;;;;;;;;;;;;;;;3.86;51.69;100938.16;3129175;28;19921;-74
2022/03/23 05:21:56;;;;;;;;;;;;;;;3.90;51.58;100937.28;3132534;28;19926;-75
2022/03/23 05:23:28;;;;;;;;;;;;;;;3.96;51.35;100936.44;3123630;28;19932;-75
2022/03/23 05:25:00;;;;;;;;;;;;;;;4.02;51.12;100941.59;3134255;28;19920;-75
2022/03/23 05:26:31;;;;;;;;;;;;;;;4.07;51.15;100937.31;3129038;28;19921;-75
2022/03/23 05:28:06;;;;;;;;;;;;;;;4.14;50.87;100940.72;3127792;28;19924;-76
2022/03/23 05:29:38;;;;;;;;;;;;;;;4.18;50.77;100945.91;3127297;28;19921;-76
2022/03/23 05:31:10;;;;;;;;;;;;;;;4.23;50.63;100951.91;3128474;28;19987;-75
2022/03/23 05:32:40;;;;;;;;;;;;;;;4.26;50.41;100946.75;3129203;28;19994;-75
2022/03/23 05:34:12;;;;;;;;;;;;;;;4.31;50.26;100945.00;3123264;28;20462;-74
2022/03/23 05:35:44;;;;;;;;;;;;;;;4.37;50.09;100948.44;3125101;28;19975;-75
2022/03/23 05:37:16;;;;;;;;;;;;;;;4.42;49.95;100949.31;3120171;28;20340;-74
2022/03/23 05:38:48;;;;;;;;;;;;;;;4.46;49.76;100944.13;3124247;28;19921;-75
2022/03/23 05:40:21;;;;;;;;;;;;;;;4.53;49.66;100942.41;3125553;28;19929;-74
2022/03/23 05:41:54;;;;;;;;;;;;;;;4.60;49.59;100943.25;3126113;28;19921;-74
2022/03/23 05:43:25;;;;;;;;;;;;;;;4.66;49.42;100950.97;3131080;28;20370;-76
2022/03/23 05:44:56;;;;;;;;;;;;;;;4.73;49.23;100955.25;3131559;28;20501;-76
2022/03/23 05:46:28;;;;;;;;;;;;;;;4.79;49.17;100955.22;3130020;28;19928;-77
2022/03/23 05:47:59;;;;;;;;;;;;;;;4.85;49.05;100957.81;3129087;28;19925;-76
2022/03/23 05:49:31;;;;;;;;;;;;;;;4.92;48.95;100951.75;3132069;28;19921;-75
2022/03/23 05:51:03;;;;;;;;;;;;;;;4.99;48.75;100956.03;3129964;28;19971;-75
2022/03/23 05:52:35;;;;;;;;;;;;;;;5.06;48.74;100951.72;3130911;28;19929;-76
2022/03/23 05:54:06;;;;;;;;;;;;;;;5.14;48.56;100954.25;3131189;28;19928;-76
2022/03/23 05:55:38;;;;;;;;;;;;;;;5.21;48.46;100961.97;3131767;28;19931;-76
2022/03/23 05:57:11;;;;;;;;;;;;;;;5.28;48.30;100955.03;3130698;28;20513;-77
2022/03/23 05:58:41;;;;;;;;;;;;;;;5.36;48.13;100952.44;3130869;28;19924;-76
2022/03/23 06:00:13;;;;;;;;;;;;;;;5.46;48.21;100954.09;3130685;28;20027;-76
2022/03/23 06:01:45;;;;;;;;;;;;;;;5.56;47.98;100953.19;3130778;28;19925;-74
2022/03/23 06:03:16;;;;;;;;;;;;;;;5.68;47.85;100955.69;3131427;28;19925;-75
2022/03/23 06:04:48;;;;;;;;;;;;;;;5.67;47.63;100917.78;3131302;28;19920;-76
2022/03/23 06:06:20;;;;;;;;;;;;;;;6.01;47.48;100950.31;3129768;28;19928;-74
2022/03/23 06:07:51;;;;;;;;;;;;;;;6.23;47.28;100950.97;3131109;28;19924;-74
2022/03/23 06:09:23;;;;;;;;;;;;;;;6.53;47.03;100952.41;3130560;28;19920;-75
2022/03/23 06:10:55;;;;;;;;;;;;;;;7.24;46.78;100955.03;3129728;28;20016;-76
2022/03/23 06:12:28;;;;;;;;;;;;;;;8.58;46.45;100956.47;3130606;28;19924;-75
2022/03/23 06:13:59;;;;;;;;;;;;;;;10.31;45.28;100950.06;3131684;28;19994;-72
2022/03/23 06:15:30;;;;;;;;;;;;;;;12.10;43.01;100948.31;3123806;28;19929;-74
2022/03/23 06:17:01;;;;;;;;;;;;;;;13.78;40.20;100946.56;3130754;28;20004;-79
2022/03/23 06:18:33;;;;;;;;;;;;;;;15.32;38.15;100943.41;3131147;28;20413;-74
2022/03/23 06:20:05;;;;;;;;;;;;;;;16.74;36.28;100941.66;3128883;28;20625;-73
2022/03/23 06:21:37;;;;;;;;;;;;;;;18.12;34.50;100939.28;3126776;28;20397;-70
2022/03/23 06:23:09;;;;;;;;;;;;;;;19.38;32.91;100936.09;3130313;28;20734;-68
2022/03/23 06:24:40;;;;;;;;;;;;;;;20.54;31.43;100931.03;3130747;28;19925;-69
2022/03/23 06:26:12;;;;;;;;;;;;;;;21.67;29.83;100926.59;3130702;28;19925;-69
2022/03/23 06:27:45;;;;;;;;;;;;;;;22.67;28.07;100926.03;3130972;28;19921;-68
2022/03/23 06:29:16;;;;;;;;;;;;;;;23.59;27.02;100925.84;3131961;28;19964;-67
2022/03/23 06:30:52;;;;;;;;;;;;;;;24.40;26.04;100935.03;3129020;28;19924;-68
2022/03/23 06:32:23;;;;;;;;;;;;;;;25.23;24.66;100921.69;3127351;28;19948;-68
2022/03/23 06:33:55;;;;;;;;;;;;;;;26.03;23.70;100932.19;3128627;28;19936;-67
2022/03/23 06:35:28;;;;;;;;;;;;;;;26.72;22.97;100931.06;3128251;28;20329;-67
2022/03/23 06:37:01;;;;;;;;;;;;;;;27.36;22.00;100923.16;3128132;28;19924;-68
2022/03/23 06:38:34;;;;;;;;;;;;;;;27.95;21.21;100920.88;3130113;28;19940;-67
2022/03/23 06:40:06;;;;;;;;;;;;;;;28.53;20.76;100931.03;3131062;28;20318;-67
2022/03/23 06:41:38;;;;;;;;;;;;;;;29.07;19.88;100933.50;3130053;28;19921;-68
2022/03/23 06:43:11;;;;;;;;;;;;;;;29.48;19.25;100921.88;3130457;28;19924;-67
2022/03/23 06:44:43;;;;;;;;;;;;;;;29.88;18.45;100928.34;3129060;28;19920;-69
2022/03/23 06:46:14;;;;;;;;;;;;;;;30.27;18.17;100922.28;3130484;28;19924;-69
2022/03/23 06:47:46;;;;;;;;;;;;;;;30.74;17.74;100928.72;3126537;28;19924;-69
2022/03/23 06:49:18;;;;;;;;;;;;;;;31.22;17.23;100922.31;3129355;28;19921;-69
2022/03/23 06:50:49;;;;;;;;;;;;;;;31.64;16.85;100922.91;3127819;28;19923;-70
2022/03/23 06:52:21;;;;;;;;;;;;;;;32.05;16.11;100923.44;3134734;28;20364;-72
2022/03/23 06:53:53;;;;;;;;;;;;;;;32.35;16.06;100921.63;3128318;28;19986;-71
2022/03/23 06:55:24;;;;;;;;;;;;;;;32.62;15.45;100927.41;3122807;28;20444;-72
2022/03/23 06:56:56;;;;;;;;;;;;;;;32.78;15.08;100921.00;3131259;28;19925;-73
2022/03/23 06:58:29;;;;;;;;;;;;;;;32.85;14.82;100927.31;3130702;28;19932;-71
2022/03/23 07:00:01;;;;;;;;;;;;;;;32.87;14.66;100916.34;3130500;28;19935;-72
2022/03/23 07:01:32;;;;;;;;;;;;;;;32.90;14.53;100921.38;3129904;28;19921;-72
2022/03/23 07:03:05;;;;;;;;;;;;;;;32.89;14.34;100915.13;3131120;28;20432;-73
2022/03/23 07:04:36;;;;;;;;;;;;;;;32.82;14.37;100920.44;3130179;28;19989;-74
2022/03/23 07:06:08;;;;;;;;;;;;;;;32.71;14.22;100926.28;3130845;28;20002;-73
2022/03/23 07:09:31;;;;;;;;;;;;;;;32.68;14.12;100917.75;3129835;28;19990;-72
2022/03/23 07:09:31;;;;;;;;;;;;;;;32.80;13.96;100916.25;3130058;28;20358;-73
2022/03/23 07:11:02;;;;;;;;;;;;;;;32.85;13.75;100911.97;3130493;28;20174;-73
2022/03/23 07:12:33;;;;;;;;;;;;;;;32.93;13.99;100918.28;3130098;28;20011;-73
2022/03/23 07:14:11;;;;;;;;;;;;;;;33.06;13.84;100910.38;3130600;28;20472;-74
2022/03/23 07:15:44;;;;;;;;;;;;;;;33.15;13.39;100913.81;3130906;28;19927;-74
2022/03/23 07:17:16;;;;;;;;;;;;;;;33.04;13.30;100913.28;3131247;28;19936;-69
2022/03/23 07:18:49;;;;;;;;;;;;;;;32.84;13.29;100913.00;3119929;28;19921;-69
2022/03/23 07:20:20;;;;;;;;;;;;;;;32.57;13.29;100916.38;3126964;28;19924;-68
2022/03/23 07:21:52;;;;;;;;;;;;;;;32.22;13.27;100913.34;3129674;28;20003;-68
2022/03/23 07:23:24;;;;;;;;;;;;;;;31.89;13.54;100905.53;3128752;28;19944;-67
2022/03/23 07:24:58;;;;;;;;;;;;;;;31.67;13.73;100917.16;3127054;28;20328;-68
2022/03/23 07:26:30;;;;;;;;;;;;;;;31.54;13.78;100915.06;3129879;28;19920;-67
2022/03/23 07:28:02;;;;;;;;;;;;;;;31.35;13.75;100921.75;3130200;28;19925;-67
2022/03/23 07:29:36;;;;;;;;;;;;;;;31.14;13.98;100908.88;3130241;28;20378;-67
2022/03/23 07:31:08;;;;;;;;;;;;;;;30.93;13.96;100909.50;3123773;28;19929;-67
2022/03/23 07:32:40;;;;;;;;;;;;;;;30.54;14.11;100896.84;3130300;28;19933;-67
2022/03/23 07:34:13;;;;;;;;;;;;;;;30.30;14.23;100910.34;3130400;28;19925;-72
2022/03/23 07:35:44;;;;;;;;;;;;;;;30.03;14.16;100916.91;3127428;28;20294;-73
2022/03/23 07:37:16;;;;;;;;;;;;;;;29.77;14.33;100914.41;3129522;28;19935;-71
2022/03/23 07:38:48;;;;;;;;;;;;;;;29.40;14.51;100912.97;3129585;28;19925;-70
2022/03/23 07:40:19;;;;;;;;;;;;;;;29.08;14.90;100917.25;3127097;28;19932;-70
2022/03/23 07:41:52;;;;;;;;;;;;;;;28.60;14.92;100916.00;3125528;28;19953;-70
2022/03/23 07:43:24;;;;;;;;;;;;;;;28.19;15.24;100913.06;3121905;28;19925;-67
2022/03/23 07:44:57;;;;;;;;;;;;;;;27.85;15.19;100905.75;3126310;28;20126;-71
2022/03/23 07:46:29;;;;;;;;;;;;;;;27.49;15.31;100904.06;3127351;28;20036;-70
2022/03/23 07:48:00;;;;;;;;;;;;;;;27.15;15.49;100902.03;3128173;28;20016;-70
2022/03/23 07:49:32;;;;;;;;;;;;;;;26.83;15.68;100895.31;3125006;28;19924;-70
2022/03/23 07:51:04;;;;;;;;;;;;;;;26.55;15.99;100897.94;3126941;28;20554;-75
2022/03/23 07:52:36;;;;;;;;;;;;;;;26.33;15.64;100895.59;3126792;28;19956;-68
2022/03/23 07:54:08;;;;;;;;;;;;;;;26.02;15.87;100897.59;3121248;28;20315;-74
2022/03/23 07:55:40;;;;;;;;;;;;;;;25.60;16.00;100893.38;3125357;28;19925;-67
2022/03/23 07:57:12;;;;;;;;;;;;;;;25.23;16.24;100895.03;3128133;28;19928;-68
2022/03/23 07:58:43;;;;;;;;;;;;;;;24.87;16.71;100899.94;3130962;28;20024;-67
2022/03/23 08:00:17;;;;;;;;;;;;;;;24.46;16.46;100894.59;3127010;28;19924;-67
2022/03/23 08:01:48;;;;;;;;;;;;;;;24.05;16.93;100898.94;3128899;28;20330;-66
2022/03/23 08:03:20;;;;;;;;;;;;;;;23.73;16.79;100892.81;3127709;28;19928;-67
2022/03/23 08:04:51;;;;;;;;;;;;;;;23.29;17.14;100890.16;3124651;28;19924;-67
2022/03/23 08:06:23;;;;;;;;;;;;;;;22.90;17.20;100888.88;3123589;28;19924;-67
2022/03/23 08:07:55;;;;;;;;;;;;;;;22.48;17.57;100889.47;3124628;28;20011;-67